Time;durP1;ratioP1;P1;durP2;ratioP2;P2;SDS_P1;SDS_P2;PMS_P1;PMS_P2;Temp;Humidity;BMP_temperature;BMP_pressure;BME280_temperature;BME280_humidity;BME280_pressure;Samples;Min_cycle;Max_cycle;Signal;HPM_P1;HPM_P2
2022/09/07 00:00:48;;;;;;;4.55;3.53;;;;;;;;;;4953911;28;20419;-64
2022/09/07 00:03:14;;;;;;;6.53;3.95;;;;;;;;;;4953764;28;20474;-64
2022/09/07 00:05:44;;;;;;;4.80;3.45;;;;;;;;;;4953461;28;20037;-63
2022/09/07 00:08:11;;;;;;;6.43;3.80;;;;;;;;;;4953531;28;20031;-64
2022/09/07 00:10:37;;;;;;;8.70;4.55;;;;;;;;;;4953472;28;20451;-63
2022/09/07 00:13:04;;;;;;;6.72;3.90;;;;;;;;;;4953054;29;20047;-62
2022/09/07 00:15:30;;;;;;;8.93;3.90;;;;;;;;;;4953496;28;20122;-62
2022/09/07 00:17:56;;;;;;;6.18;4.43;;;;;;;;;;4953805;28;20475;-62
2022/09/07 00:20:22;;;;;;;9.82;4.78;;;;;;;;;;4953239;28;20035;-62
2022/09/07 00:22:48;;;;;;;12.18;5.13;;;;;;;;;;4953449;28;20046;-62
2022/09/07 00:25:14;;;;;;;11.73;4.80;;;;;;;;;;4953418;28;20035;-63
2022/09/07 00:27:40;;;;;;;7.43;4.63;;;;;;;;;;4953087;28;20054;-61
2022/09/07 00:30:06;;;;;;;13.75;5.78;;;;;;;;;;4952903;28;20028;-61
2022/09/07 00:32:32;;;;;;;8.48;5.07;;;;;;;;;;4953397;28;20036;-61
2022/09/07 00:34:58;;;;;;;6.97;4.22;;;;;;;;;;4953833;29;20518;-61
2022/09/07 00:37:24;;;;;;;15.65;4.57;;;;;;;;;;4953657;29;20043;-61
2022/09/07 00:39:51;;;;;;;7.78;4.15;;;;;;;;;;4953250;28;20470;-61
2022/09/07 00:42:20;;;;;;;5.75;4.20;;;;;;;;;;4954631;28;20031;-61
2022/09/07 00:45:05;;;;;;;6.53;4.20;;;;;;;;;;4936418;29;20108;-63
2022/09/07 00:47:40;;;;;;;5.85;3.75;;;;;;;;;;4937595;29;20039;-62
2022/09/07 00:50:20;;;;;;;8.85;3.92;;;;;;;;;;4937440;29;20047;-62
2022/09/07 00:52:49;;;;;;;6.72;4.20;;;;;;;;;;4937680;29;20384;-62
2022/09/07 00:55:17;;;;;;;8.55;4.20;;;;;;;;;;4937243;29;20031;-63
2022/09/07 00:57:48;;;;;;;8.95;4.53;;;;;;;;;;4937569;29;20115;-62
2022/09/07 01:00:14;;;;;;;10.40;4.60;;;;;;;;;;4937224;29;20040;-62
2022/09/07 01:02:40;;;;;;;6.78;4.65;;;;;;;;;;4937583;29;20035;-62
2022/09/07 01:05:14;;;;;;;10.93;5.00;;;;;;;;;;4937455;29;20099;-62
2022/09/07 01:07:40;;;;;;;7.85;4.10;;;;;;;;;;4956595;29;20376;-62
2022/09/07 01:10:08;;;;;;;10.38;4.90;;;;;;;;;;4956262;28;20467;-62
2022/09/07 01:12:34;;;;;;;6.80;5.10;;;;;;;;;;4956322;28;20042;-62
2022/09/07 01:15:00;;;;;;;8.93;5.47;;;;;;;;;;4956087;28;20390;-62
2022/09/07 01:17:44;;;;;;;7.40;4.72;;;;;;;;;;4955898;28;20139;-63
2022/09/07 01:20:41;;;;;;;6.97;4.93;;;;;;;;;;4955977;28;20031;-62
2022/09/07 01:23:36;;;;;;;7.88;4.53;;;;;;;;;;4956033;28;20039;-63
2022/09/07 01:26:05;;;;;;;6.90;4.35;;;;;;;;;;4954654;28;20102;-63
2022/09/07 01:28:35;;;;;;;8.40;4.55;;;;;;;;;;4956080;28;20031;-62
2022/09/07 01:31:04;;;;;;;7.47;4.57;;;;;;;;;;4956297;28;20035;-62
2022/09/07 01:33:48;;;;;;;8.23;4.43;;;;;;;;;;4956290;28;20027;-62
2022/09/07 01:36:25;;;;;;;9.75;5.13;;;;;;;;;;4956237;29;20536;-62
2022/09/07 01:38:55;;;;;;;7.38;4.88;;;;;;;;;;4956284;28;20051;-62
2022/09/07 01:41:42;;;;;;;6.97;4.53;;;;;;;;;;4956167;28;20102;-62
2022/09/07 01:44:34;;;;;;;6.65;4.57;;;;;;;;;;4956157;29;20094;-62
2022/09/07 01:47:20;;;;;;;8.02;4.30;;;;;;;;;;4955652;28;20031;-62
2022/09/07 01:50:00;;;;;;;6.82;4.38;;;;;;;;;;4955858;28;20046;-62
2022/09/07 01:52:56;;;;;;;5.60;3.90;;;;;;;;;;4955964;28;20118;-62
2022/09/07 01:55:35;;;;;;;4.93;4.10;;;;;;;;;;4954709;29;20082;-61
2022/09/07 01:58:10;;;;;;;5.97;3.88;;;;;;;;;;4955957;29;20049;-62
2022/09/07 02:00:41;;;;;;;7.88;4.45;;;;;;;;;;4955277;28;20499;-61
2022/09/07 02:03:18;;;;;;;9.65;5.15;;;;;;;;;;4955177;28;20039;-61
2022/09/07 02:05:57;;;;;;;13.43;5.63;;;;;;;;;;4955010;28;20047;-62
2022/09/07 02:08:44;;;;;;;7.60;4.47;;;;;;;;;;4955300;28;20035;-62
2022/09/07 02:11:17;;;;;;;7.38;4.43;;;;;;;;;;4955861;29;20040;-61
2022/09/07 02:14:03;;;;;;;12.13;4.68;;;;;;;;;;4953900;28;20056;-62
2022/09/07 02:16:32;;;;;;;9.63;4.75;;;;;;;;;;4955330;28;20039;-64
2022/09/07 02:19:07;;;;;;;7.80;4.82;;;;;;;;;;4955222;28;20027;-62
2022/09/07 02:21:42;;;;;;;7.32;4.72;;;;;;;;;;4954751;29;20039;-61
2022/09/07 02:24:23;;;;;;;9.82;5.38;;;;;;;;;;4968887;28;20089;-62
2022/09/07 02:26:53;;;;;;;6.22;5.00;;;;;;;;;;4973165;28;20027;-61
2022/09/07 02:29:19;;;;;;;6.25;5.07;;;;;;;;;;4974536;28;20031;-62
2022/09/07 02:31:46;;;;;;;6.40;4.47;;;;;;;;;;4974998;28;20041;-61
2022/09/07 02:34:12;;;;;;;10.57;5.15;;;;;;;;;;4975224;28;20046;-61
2022/09/07 02:36:43;;;;;;;8.25;5.32;;;;;;;;;;4975224;28;20037;-62
2022/09/07 02:39:09;;;;;;;9.52;4.85;;;;;;;;;;4974011;28;20066;-61
2022/09/07 02:41:38;;;;;;;6.75;5.18;;;;;;;;;;4975489;28;20096;-62
2022/09/07 02:44:09;;;;;;;7.60;4.85;;;;;;;;;;4975203;28;20478;-63
2022/09/07 02:47:02;;;;;;;7.35;4.95;;;;;;;;;;4975149;28;20553;-63
2022/09/07 02:49:30;;;;;;;12.33;4.87;;;;;;;;;;4955791;28;20041;-62
2022/09/07 02:52:08;;;;;;;6.00;4.70;;;;;;;;;;4955334;28;20027;-64
2022/09/07 02:54:37;;;;;;;6.32;4.40;;;;;;;;;;4955606;28;20471;-64
2022/09/07 02:57:23;;;;;;;5.55;4.50;;;;;;;;;;4955420;28;20027;-63
2022/09/07 03:00:14;;;;;;;7.97;5.43;;;;;;;;;;4954873;29;20035;-66
2022/09/07 03:02:57;;;;;;;5.78;4.55;;;;;;;;;;4955029;28;20035;-62
2022/09/07 03:05:47;;;;;;;5.13;4.32;;;;;;;;;;4955187;28;20459;-63
2022/09/07 03:08:45;;;;;;;8.40;4.75;;;;;;;;;;4953717;28;20077;-62
2022/09/07 03:11:12;;;;;;;6.95;4.22;;;;;;;;;;4937634;28;20055;-65
2022/09/07 03:13:38;;;;;;;5.65;4.13;;;;;;;;;;4954669;28;20055;-65
2022/09/07 03:16:04;;;;;;;6.57;4.05;;;;;;;;;;4954340;28;20090;-63
2022/09/07 03:18:30;;;;;;;8.32;4.72;;;;;;;;;;4937733;28;20047;-63
2022/09/07 03:20:56;;;;;;;10.38;4.43;;;;;;;;;;4937712;29;20120;-63
2022/09/07 03:23:22;;;;;;;10.38;4.88;;;;;;;;;;4955119;28;20543;-63
2022/09/07 03:25:48;;;;;;;10.52;5.20;;;;;;;;;;4954924;28;20118;-64
2022/09/07 03:28:15;;;;;;;8.95;5.18;;;;;;;;;;4954595;28;20110;-65
2022/09/07 03:30:42;;;;;;;7.10;5.28;;;;;;;;;;4955108;28;20039;-62
2022/09/07 03:33:09;;;;;;;12.90;5.35;;;;;;;;;;4954972;28;20538;-63
2022/09/07 03:35:34;;;;;;;12.65;6.07;;;;;;;;;;4937614;29;20066;-63
2022/09/07 03:38:00;;;;;;;8.48;5.55;;;;;;;;;;4954829;29;20505;-64
2022/09/07 03:40:26;;;;;;;10.57;5.95;;;;;;;;;;4954670;28;20051;-64
2022/09/07 03:42:52;;;;;;;11.00;6.00;;;;;;;;;;4937163;28;20030;-66
2022/09/07 03:45:18;;;;;;;10.20;5.78;;;;;;;;;;4954771;28;20379;-63
2022/09/07 03:47:44;;;;;;;6.47;5.40;;;;;;;;;;4937450;28;20031;-62
2022/09/07 03:50:10;;;;;;;7.18;4.97;;;;;;;;;;4954609;28;20062;-61
2022/09/07 03:52:36;;;;;;;10.95;5.10;;;;;;;;;;4954886;29;20059;-64
2022/09/07 03:55:03;;;;;;;6.28;4.70;;;;;;;;;;4954552;28;20039;-63
2022/09/07 03:57:29;;;;;;;6.95;4.90;;;;;;;;;;4954507;28;20024;-64
2022/09/07 03:59:55;;;;;;;7.38;4.70;;;;;;;;;;4954465;28;20032;-63
2022/09/07 04:02:20;;;;;;;9.57;5.80;;;;;;;;;;4954443;29;20441;-64
2022/09/07 04:04:46;;;;;;;14.10;6.30;;;;;;;;;;4954528;29;20042;-63
2022/09/07 04:07:13;;;;;;;12.23;4.65;;;;;;;;;;4954611;29;20415;-65
2022/09/07 04:09:39;;;;;;;14.93;5.45;;;;;;;;;;4957337;28;20042;-66
2022/09/07 04:12:05;;;;;;;10.00;4.75;;;;;;;;;;4957555;28;20031;-64
2022/09/07 04:14:31;;;;;;;10.02;5.90;;;;;;;;;;4953912;28;20126;-64
2022/09/07 04:16:56;;;;;;;11.80;6.50;;;;;;;;;;4953912;28;20031;-64
2022/09/07 04:19:22;;;;;;;14.02;6.43;;;;;;;;;;4957845;28;20437;-62
2022/09/07 04:21:48;;;;;;;12.18;6.88;;;;;;;;;;4957886;28;20118;-63
2022/09/07 04:24:16;;;;;;;31.83;7.55;;;;;;;;;;4957655;28;20471;-63
2022/09/07 04:26:44;;;;;;;20.55;7.40;;;;;;;;;;4957310;28;20043;-62
2022/09/07 04:29:11;;;;;;;13.90;6.18;;;;;;;;;;4957980;28;20099;-62
2022/09/07 04:31:37;;;;;;;13.68;7.03;;;;;;;;;;4958047;28;20481;-67
2022/09/07 04:34:04;;;;;;;14.65;6.68;;;;;;;;;;4958143;28;20434;-65
2022/09/07 04:36:31;;;;;;;9.18;5.60;;;;;;;;;;4956551;29;20102;-68
2022/09/07 04:39:02;;;;;;;8.43;5.45;;;;;;;;;;4940845;29;20052;-64
2022/09/07 04:41:29;;;;;;;9.20;5.20;;;;;;;;;;4957815;28;20107;-64
2022/09/07 04:43:58;;;;;;;8.13;5.10;;;;;;;;;;4957916;29;20020;-65
2022/09/07 04:46:26;;;;;;;8.32;5.20;;;;;;;;;;4957320;29;20031;-69
2022/09/07 04:48:55;;;;;;;13.52;5.53;;;;;;;;;;4957632;28;20474;-69
2022/09/07 04:51:24;;;;;;;7.88;5.28;;;;;;;;;;4957231;28;20521;-64
2022/09/07 04:53:51;;;;;;;8.77;5.85;;;;;;;;;;4956974;28;20027;-65
2022/09/07 04:56:18;;;;;;;10.43;5.55;;;;;;;;;;4957335;29;20039;-65
2022/09/07 04:58:45;;;;;;;8.73;5.47;;;;;;;;;;4957282;28;20030;-67
2022/09/07 05:01:14;;;;;;;17.48;6.43;;;;;;;;;;4957672;28;20071;-68
2022/09/07 05:03:41;;;;;;;11.93;5.78;;;;;;;;;;4957384;28;20034;-69
2022/09/07 05:06:07;;;;;;;12.98;6.18;;;;;;;;;;4957396;28;20042;-66
2022/09/07 05:08:38;;;;;;;14.73;6.85;;;;;;;;;;4957140;28;20053;-66
2022/09/07 05:11:04;;;;;;;8.68;5.32;;;;;;;;;;4957241;28;20035;-66
2022/09/07 05:13:31;;;;;;;7.72;5.28;;;;;;;;;;4957097;29;20059;-62
2022/09/07 05:15:58;;;;;;;8.85;5.43;;;;;;;;;;4957278;29;20039;-63
2022/09/07 05:18:24;;;;;;;11.57;6.15;;;;;;;;;;4957083;28;20027;-63
2022/09/07 05:20:50;;;;;;;11.30;5.25;;;;;;;;;;4956838;29;20110;-63
2022/09/07 05:23:16;;;;;;;9.65;5.15;;;;;;;;;;4956211;28;20539;-64
2022/09/07 05:25:44;;;;;;;11.98;5.68;;;;;;;;;;4955683;28;20031;-65
2022/09/07 05:28:10;;;;;;;8.93;5.25;;;;;;;;;;4953964;28;20114;-64
2022/09/07 05:30:37;;;;;;;13.52;4.85;;;;;;;;;;4956268;28;20130;-65
2022/09/07 05:33:03;;;;;;;12.15;5.45;;;;;;;;;;4956345;28;20035;-63
2022/09/07 05:35:29;;;;;;;13.13;6.35;;;;;;;;;;4956816;28;20062;-66
2022/09/07 05:37:55;;;;;;;10.43;6.60;;;;;;;;;;4956910;28;20378;-61
2022/09/07 05:40:21;;;;;;;8.95;5.82;;;;;;;;;;4954080;28;20031;-63
2022/09/07 05:42:47;;;;;;;9.43;5.45;;;;;;;;;;4956038;29;20028;-63
2022/09/07 05:45:13;;;;;;;11.88;6.40;;;;;;;;;;4956235;28;20041;-64
2022/09/07 05:47:39;;;;;;;11.38;5.43;;;;;;;;;;4956422;29;20320;-62
2022/09/07 05:50:07;;;;;;;9.10;5.70;;;;;;;;;;4956162;28;20054;-65
2022/09/07 05:52:34;;;;;;;7.70;5.25;;;;;;;;;;4956157;28;20027;-62
2022/09/07 05:55:00;;;;;;;8.05;5.00;;;;;;;;;;4956103;28;20050;-66
2022/09/07 05:57:25;;;;;;;9.35;5.90;;;;;;;;;;4956063;28;20027;-62
2022/09/07 05:59:51;;;;;;;11.43;5.57;;;;;;;;;;4972590;28;20043;-64
2022/09/07 06:02:17;;;;;;;10.02;5.65;;;;;;;;;;4975294;28;20023;-63
2022/09/07 06:04:43;;;;;;;8.93;6.18;;;;;;;;;;4975267;28;20481;-63
2022/09/07 06:07:12;;;;;;;10.95;5.32;;;;;;;;;;4973794;28;20023;-64
2022/09/07 06:09:39;;;;;;;11.68;6.22;;;;;;;;;;4974777;28;20046;-64
2022/09/07 06:12:05;;;;;;;9.50;5.32;;;;;;;;;;4967048;28;20027;-63
2022/09/07 06:14:32;;;;;;;9.90;5.15;;;;;;;;;;4955522;28;20050;-63
2022/09/07 06:16:58;;;;;;;16.27;6.07;;;;;;;;;;4955747;28;20102;-63
2022/09/07 06:19:24;;;;;;;11.80;6.05;;;;;;;;;;4955644;28;20031;-63
2022/09/07 06:21:49;;;;;;;10.90;5.90;;;;;;;;;;4946845;28;20030;-68
2022/09/07 06:24:15;;;;;;;9.82;5.35;;;;;;;;;;4936110;29;20067;-67
2022/09/07 06:26:41;;;;;;;7.65;5.32;;;;;;;;;;4936118;29;20032;-68
2022/09/07 06:29:08;;;;;;;10.25;5.90;;;;;;;;;;4936218;29;20443;-66
2022/09/07 06:31:33;;;;;;;9.32;5.72;;;;;;;;;;4935634;29;20027;-68
2022/09/07 06:33:59;;;;;;;8.70;5.63;;;;;;;;;;4936237;29;20040;-68
2022/09/07 06:36:27;;;;;;;11.63;6.72;;;;;;;;;;4934964;29;20114;-67
2022/09/07 06:38:57;;;;;;;9.55;5.43;;;;;;;;;;4918295;29;20054;-66
2022/09/07 06:41:28;;;;;;;10.90;6.10;;;;;;;;;;4933618;29;20031;-66
2022/09/07 06:43:56;;;;;;;9.73;4.57;;;;;;;;;;4931445;29;20028;-67
2022/09/07 06:46:22;;;;;;;8.85;5.45;;;;;;;;;;4924292;29;20035;-67
2022/09/07 06:48:54;;;;;;;11.00;5.78;;;;;;;;;;4924470;29;20032;-67
2022/09/07 06:51:27;;;;;;;8.43;5.63;;;;;;;;;;4933819;29;20036;-67
2022/09/07 06:53:56;;;;;;;8.50;5.43;;;;;;;;;;4935617;29;20031;-67
2022/09/07 06:56:23;;;;;;;11.60;5.35;;;;;;;;;;4935345;29;20031;-68
2022/09/07 06:58:53;;;;;;;11.15;5.13;;;;;;;;;;4917985;29;20499;-70
2022/09/07 07:01:20;;;;;;;7.75;5.38;;;;;;;;;;4935227;29;20551;-70
2022/09/07 07:03:46;;;;;;;11.10;5.43;;;;;;;;;;4918900;29;20034;-70
2022/09/07 07:06:13;;;;;;;13.43;5.88;;;;;;;;;;4935762;29;20067;-68
2022/09/07 07:08:39;;;;;;;12.00;5.05;;;;;;;;;;4935763;29;20087;-71
2022/09/07 07:11:08;;;;;;;11.05;5.13;;;;;;;;;;4936424;29;20040;-69
2022/09/07 07:13:34;;;;;;;9.35;5.40;;;;;;;;;;4935495;29;20036;-67
2022/09/07 07:16:15;;;;;;;13.57;4.72;;;;;;;;;;4948436;28;20038;-69
2022/09/07 07:18:42;;;;;;;9.70;4.70;;;;;;;;;;4943214;28;20475;-68
2022/09/07 07:21:13;;;;;;;8.07;4.55;;;;;;;;;;4927296;29;20024;-69
2022/09/07 07:23:40;;;;;;;16.83;4.82;;;;;;;;;;4941979;28;20447;-68
2022/09/07 07:26:17;;;;;;;8.25;4.28;;;;;;;;;;4954449;29;20035;-69
2022/09/07 07:28:50;;;;;;;10.18;5.13;;;;;;;;;;4950689;28;20490;-65
2022/09/07 07:31:17;;;;;;;;;;;;;;;;;;4937244;29;20035;-68
2022/09/07 07:33:45;;;;;;;7.95;4.18;;;;;;;;;;4953974;28;19915;-69
2022/09/07 07:36:18;;;;;;;6.72;4.00;;;;;;;;;;4953281;28;20028;-69
2022/09/07 07:38:46;;;;;;;;;;;;;;;;;;4954058;28;20035;-66
2022/09/07 07:41:13;;;;;;;6.93;3.65;;;;;;;;;;4952702;28;19918;-67
2022/09/07 07:43:39;;;;;;;9.30;3.90;;;;;;;;;;4954427;28;20114;-69
2022/09/07 07:46:06;;;;;;;6.13;3.80;;;;;;;;;;4956109;28;20063;-67
2022/09/07 07:48:33;;;;;;;5.63;3.35;;;;;;;;;;4954297;28;20126;-68
2022/09/07 07:51:05;;;;;;;11.00;3.90;;;;;;;;;;4954744;28;20027;-67
2022/09/07 07:53:36;;;;;;;8.77;3.40;;;;;;;;;;4953304;28;20475;-66
2022/09/07 07:56:03;;;;;;;5.93;3.60;;;;;;;;;;4953980;28;20092;-69
2022/09/07 07:58:31;;;;;;;10.40;3.22;;;;;;;;;;4953754;28;20031;-67
2022/09/07 08:01:03;;;;;;;6.72;3.28;;;;;;;;;;4954392;28;20189;-67
2022/09/07 08:03:29;;;;;;;7.00;2.78;;;;;;;;;;4953846;28;20040;-67
2022/09/07 08:05:55;;;;;;;7.13;3.00;;;;;;;;;;4951589;28;20043;-67
2022/09/07 08:08:22;;;;;;;4.90;2.53;;;;;;;;;;4947064;28;20050;-70
2022/09/07 08:10:49;;;;;;;4.65;2.45;;;;;;;;;;4955574;28;20027;-65
2022/09/07 08:13:16;;;;;;;7.72;2.85;;;;;;;;;;4955221;28;20031;-68
2022/09/07 08:15:45;;;;;;;5.07;2.28;;;;;;;;;;4954205;28;20034;-67
2022/09/07 08:18:12;;;;;;;12.05;3.22;;;;;;;;;;4951382;28;20039;-67
2022/09/07 08:20:40;;;;;;;8.10;2.90;;;;;;;;;;4953965;28;20509;-68
2022/09/07 08:23:07;;;;;;;6.65;2.33;;;;;;;;;;4953270;28;20487;-66
2022/09/07 08:25:36;;;;;;;5.10;2.50;;;;;;;;;;4954137;28;20031;-67
2022/09/07 08:28:02;;;;;;;5.10;2.10;;;;;;;;;;4950634;29;20039;-66
2022/09/07 08:30:28;;;;;;;5.22;2.50;;;;;;;;;;4947951;28;20055;-64
2022/09/07 08:32:54;;;;;;;3.72;2.38;;;;;;;;;;4944977;28;20487;-65
2022/09/07 08:35:23;;;;;;;8.55;2.35;;;;;;;;;;4950211;28;20386;-64
2022/09/07 08:37:49;;;;;;;6.10;2.50;;;;;;;;;;4938503;28;20130;-66
2022/09/07 08:40:16;;;;;;;4.63;2.17;;;;;;;;;;4936378;29;20194;-65
2022/09/07 08:42:52;;;;;;;5.15;2.22;;;;;;;;;;4949786;28;20039;-66
2022/09/07 08:45:28;;;;;;;12.93;2.78;;;;;;;;;;4945863;28;20121;-65
2022/09/07 08:47:54;;;;;;;6.03;2.38;;;;;;;;;;4934480;29;20119;-65
2022/09/07 08:50:36;;;;;;;5.32;1.95;;;;;;;;;;4938884;28;20114;-67
2022/09/07 08:53:02;;;;;;;4.88;2.22;;;;;;;;;;4933349;28;20039;-64
2022/09/07 08:55:33;;;;;;;3.72;2.13;;;;;;;;;;4957272;28;20493;-65
2022/09/07 08:58:24;;;;;;;4.57;2.03;;;;;;;;;;4953087;28;20070;-69
2022/09/07 09:00:50;;;;;;;6.22;2.40;;;;;;;;;;4937076;29;20031;-73
2022/09/07 09:03:25;;;;;;;3.58;2.03;;;;;;;;;;4969858;28;20023;-67
2022/09/07 09:06:04;;;;;;;7.43;2.47;;;;;;;;;;4976182;28;20462;-69
2022/09/07 09:09:04;;;;;;;4.15;2.30;;;;;;;;;;4959308;28;20031;-66
2022/09/07 09:11:45;;;;;;;2.80;2.00;;;;;;;;;;4947124;28;20031;-71
2022/09/07 09:14:29;;;;;;;3.35;2.00;;;;;;;;;;4947940;29;20043;-65
2022/09/07 09:17:02;;;;;;;4.43;2.17;;;;;;;;;;4954074;28;20039;-66
2022/09/07 09:19:34;;;;;;;3.75;2.40;;;;;;;;;;4944673;28;20031;-68
2022/09/07 09:22:17;;;;;;;5.20;2.15;;;;;;;;;;4926253;29;20043;-66
2022/09/07 09:25:14;;;;;;;3.38;2.28;;;;;;;;;;4951508;28;20033;-67
2022/09/07 09:27:40;;;;;;;5.40;2.63;;;;;;;;;;4954075;28;20035;-71
2022/09/07 09:30:15;;;;;;;5.05;1.98;;;;;;;;;;4956471;28;20124;-70
2022/09/07 09:32:44;;;;;;;5.15;2.22;;;;;;;;;;4956498;28;20078;-69
2022/09/07 09:35:24;;;;;;;4.45;2.40;;;;;;;;;;4949907;28;20023;-72
2022/09/07 09:37:50;;;;;;;4.45;2.60;;;;;;;;;;4954933;28;20131;-71
2022/09/07 09:40:26;;;;;;;4.28;2.25;;;;;;;;;;4949661;28;20127;-76
2022/09/07 09:43:15;;;;;;;6.80;2.60;;;;;;;;;;4954460;28;20035;-70
2022/09/07 09:45:46;;;;;;;6.53;2.88;;;;;;;;;;4953571;28;20143;-69
2022/09/07 09:48:25;;;;;;;6.18;2.55;;;;;;;;;;4955980;28;20058;-66
2022/09/07 09:50:54;;;;;;;6.05;1.92;;;;;;;;;;4956028;28;20031;-68
2022/09/07 09:53:28;;;;;;;3.95;2.22;;;;;;;;;;4954497;28;20034;-66
2022/09/07 09:55:55;;;;;;;7.93;2.10;;;;;;;;;;4955587;28;20039;-65
2022/09/07 09:58:39;;;;;;;4.20;2.40;;;;;;;;;;4955916;29;20043;-70
2022/09/07 10:01:19;;;;;;;3.78;2.20;;;;;;;;;;4960837;28;20038;-67
2022/09/07 10:03:45;;;;;;;5.22;2.42;;;;;;;;;;4960908;28;20027;-66
2022/09/07 10:06:15;;;;;;;7.60;2.85;;;;;;;;;;4954326;28;20046;-64
2022/09/07 10:08:56;;;;;;;4.47;2.25;;;;;;;;;;4957174;28;20039;-68
2022/09/07 10:11:54;;;;;;;5.35;2.40;;;;;;;;;;4957544;28;20027;-72
2022/09/07 10:14:28;;;;;;;3.85;2.30;;;;;;;;;;4928231;29;20044;-69
2022/09/07 10:16:54;;;;;;;5.45;2.65;;;;;;;;;;4936048;29;20035;-66
2022/09/07 10:19:36;;;;;;;3.92;2.60;;;;;;;;;;4948278;28;20039;-69
2022/09/07 10:22:21;;;;;;;3.03;2.30;;;;;;;;;;4955667;28;20046;-69
2022/09/07 10:24:46;;;;;;;7.88;3.00;;;;;;;;;;4954365;28;20055;-70
2022/09/07 10:27:39;;;;;;;3.72;2.30;;;;;;;;;;4955428;28;20031;-69
2022/09/07 10:30:13;;;;;;;5.32;2.50;;;;;;;;;;4956553;28;20058;-67
2022/09/07 10:33:05;;;;;;;5.25;2.17;;;;;;;;;;4966773;28;20038;-67
2022/09/07 10:35:47;;;;;;;5.03;2.20;;;;;;;;;;4973086;28;20039;-66
2022/09/07 10:38:19;;;;;;;6.22;2.55;;;;;;;;;;4974465;28;20031;-68
2022/09/07 10:40:55;;;;;;;3.50;2.05;;;;;;;;;;4962330;28;20039;-70
2022/09/07 10:43:49;;;;;;;3.97;2.17;;;;;;;;;;4935087;29;20031;-70
2022/09/07 10:46:46;;;;;;;5.80;2.38;;;;;;;;;;4954615;28;20073;-70
2022/09/07 10:49:24;;;;;;;4.88;2.50;;;;;;;;;;4954144;28;20039;-68
2022/09/07 10:51:58;;;;;;;3.45;2.30;;;;;;;;;;4954736;29;20027;-71
2022/09/07 10:54:36;;;;;;;5.05;2.60;;;;;;;;;;4953400;28;20383;-68
2022/09/07 10:57:11;;;;;;;3.22;2.50;;;;;;;;;;4953906;28;20123;-69
2022/09/07 11:00:06;;;;;;;4.20;2.28;;;;;;;;;;4937499;29;20019;-67
2022/09/07 11:02:32;;;;;;;4.13;2.40;;;;;;;;;;4953556;29;20387;-70
2022/09/07 11:05:07;;;;;;;5.72;2.50;;;;;;;;;;4952481;28;20379;-74
2022/09/07 11:08:11;;;;;;;8.57;6.43;;;;;;;;;;4953302;28;20437;-71
2022/09/07 11:11:16;;;;;;;5.63;3.08;;;;;;;;;;4935423;29;20058;-72
2022/09/07 11:13:44;;;;;;;5.05;2.55;;;;;;;;;;4925344;29;20102;-74
2022/09/07 11:16:15;;;;;;;4.38;2.80;;;;;;;;;;4953565;28;20031;-70
2022/09/07 11:19:03;;;;;;;7.07;3.28;;;;;;;;;;4957995;29;20039;-72
2022/09/07 11:21:49;;;;;;;4.20;3.22;;;;;;;;;;4963967;29;20090;-73
2022/09/07 11:24:30;;;;;;;4.70;3.40;;;;;;;;;;4960100;28;20496;-72
2022/09/07 11:27:11;;;;;;;4.60;2.90;;;;;;;;;;4975205;28;20034;-72
2022/09/07 11:29:55;;;;;;;5.50;2.42;;;;;;;;;;4933908;29;20031;-69
2022/09/07 11:32:30;;;;;;;4.63;2.78;;;;;;;;;;4934476;29;20035;-68
2022/09/07 11:35:34;;;;;;;4.63;2.85;;;;;;;;;;4935420;29;20035;-68
2022/09/07 11:38:37;;;;;;;4.45;2.92;;;;;;;;;;4935709;29;20107;-68
2022/09/07 11:41:14;;;;;;;5.43;3.30;;;;;;;;;;4923217;29;20055;-70
2022/09/07 11:44:02;;;;;;;4.38;2.80;;;;;;;;;;4936018;29;20492;-71
2022/09/07 11:46:45;;;;;;;4.32;2.90;;;;;;;;;;4935916;29;20043;-74
2022/09/07 11:49:29;;;;;;;5.55;3.25;;;;;;;;;;4935605;29;20044;-67
2022/09/07 11:52:03;;;;;;;4.60;3.15;;;;;;;;;;4918656;29;20036;-67
2022/09/07 11:54:37;;;;;;;4.43;2.80;;;;;;;;;;4935621;29;20032;-68
2022/09/07 11:57:15;;;;;;;5.50;2.85;;;;;;;;;;4935280;29;20102;-67
2022/09/07 12:00:02;;;;;;;5.60;3.30;;;;;;;;;;4935459;29;20046;-65
2022/09/07 12:02:47;;;;;;;6.22;3.70;;;;;;;;;;4935766;29;20047;-65
2022/09/07 12:05:40;;;;;;;5.43;3.30;;;;;;;;;;4936011;29;20031;-65
2022/09/07 12:08:28;;;;;;;4.35;2.90;;;;;;;;;;4923109;28;20044;-67
2022/09/07 12:11:18;;;;;;;5.10;3.70;;;;;;;;;;4934944;28;20043;-69
2022/09/07 12:14:15;;;;;;;4.70;2.60;;;;;;;;;;4961584;28;20042;-67
2022/09/07 12:16:47;;;;;;;4.28;2.70;;;;;;;;;;4972303;28;20038;-68
2022/09/07 12:19:20;;;;;;;3.80;2.70;;;;;;;;;;4968325;28;20035;-67
2022/09/07 12:21:50;;;;;;;4.45;2.63;;;;;;;;;;4955641;28;20039;-67
2022/09/07 12:24:37;;;;;;;4.45;3.08;;;;;;;;;;4972485;28;20023;-68
2022/09/07 12:27:26;;;;;;;5.90;3.13;;;;;;;;;;4956404;28;20039;-67
2022/09/07 12:29:58;;;;;;;5.15;2.83;;;;;;;;;;4961425;28;20085;-67
2022/09/07 12:32:45;;;;;;;4.13;2.90;;;;;;;;;;4960097;28;20039;-68
2022/09/07 12:35:32;;;;;;;6.70;3.10;;;;;;;;;;4954289;28;20035;-69
2022/09/07 12:38:07;;;;;;;5.00;2.80;;;;;;;;;;4966833;28;20035;-69
2022/09/07 12:40:33;;;;;;;5.78;3.38;;;;;;;;;;4960150;28;20034;-69
2022/09/07 12:43:11;;;;;;;5.35;3.83;;;;;;;;;;4977592;28;20086;-68
2022/09/07 12:45:37;;;;;;;5.05;3.10;;;;;;;;;;4975740;28;20122;-68
2022/09/07 12:48:19;;;;;;;4.65;3.30;;;;;;;;;;4945924;28;20114;-68
2022/09/07 12:51:06;;;;;;;3.55;3.00;;;;;;;;;;4940486;28;20039;-70
2022/09/07 12:54:01;;;;;;;4.70;2.92;;;;;;;;;;4938425;28;20039;-68
2022/09/07 12:57:01;;;;;;;4.97;3.00;;;;;;;;;;4938763;28;20513;-69
2022/09/07 12:59:42;;;;;;;4.15;2.65;;;;;;;;;;4955639;28;20039;-67
2022/09/07 13:02:39;;;;;;;4.43;2.90;;;;;;;;;;4954898;28;20070;-67
2022/09/07 13:05:43;;;;;;;3.78;2.97;;;;;;;;;;4955162;28;20469;-70
2022/09/07 13:08:12;;;;;;;5.97;3.10;;;;;;;;;;4937772;28;20042;-69
2022/09/07 13:10:46;;;;;;;4.07;2.90;;;;;;;;;;4922016;28;20177;-68
2022/09/07 13:13:24;;;;;;;3.70;2.92;;;;;;;;;;4956848;28;20548;-69
2022/09/07 13:16:13;;;;;;;5.40;3.05;;;;;;;;;;4957723;28;20038;-68
2022/09/07 13:18:45;;;;;;;5.97;2.90;;;;;;;;;;4943632;28;20039;-68
2022/09/07 13:21:12;;;;;;;4.88;3.25;;;;;;;;;;4975547;28;20047;-68
2022/09/07 13:23:43;;;;;;;4.05;3.10;;;;;;;;;;4943696;28;20081;-68
2022/09/07 13:26:47;;;;;;;4.53;3.20;;;;;;;;;;4959838;28;20066;-69
2022/09/07 13:29:17;;;;;;;5.22;2.80;;;;;;;;;;4977056;28;20039;-69
2022/09/07 13:32:12;;;;;;;5.15;3.10;;;;;;;;;;4975541;28;20023;-67
2022/09/07 13:34:48;;;;;;;5.65;3.15;;;;;;;;;;4975442;28;20085;-70
2022/09/07 13:37:21;;;;;;;5.18;3.25;;;;;;;;;;4943420;28;20069;-69
2022/09/07 13:39:53;;;;;;;4.13;2.63;;;;;;;;;;4975513;28;20066;-69
2022/09/07 13:42:32;;;;;;;3.72;2.80;;;;;;;;;;4959237;28;20072;-67
2022/09/07 13:45:01;;;;;;;4.40;2.95;;;;;;;;;;4959028;28;20139;-68
2022/09/07 13:48:21;;;;;;;5.75;2.97;;;;;;;;;;4976811;28;20077;-68
2022/09/07 13:51:37;;;;;;;5.60;3.83;;;;;;;;;;4878097;29;20064;-67
2022/09/07 13:54:30;;;;;;;6.45;3.22;;;;;;;;;;4808568;29;20054;-69
2022/09/07 13:57:35;;;;;;;3.60;3.15;;;;;;;;;;4959910;28;20041;-68
2022/09/07 14:00:05;;;;;;;5.82;3.60;;;;;;;;;;4960319;28;20043;-68
2022/09/07 14:02:33;;;;;;;5.82;3.72;;;;;;;;;;4976507;28;20030;-67
2022/09/07 14:05:03;;;;;;;3.88;3.40;;;;;;;;;;4959267;28;20479;-67
2022/09/07 14:07:30;;;;;;;5.53;3.88;;;;;;;;;;4959113;28;20039;-68
2022/09/07 14:10:19;;;;;;;5.80;3.78;;;;;;;;;;4959110;28;20413;-67
2022/09/07 14:12:53;;;;;;;4.00;3.40;;;;;;;;;;4959001;28;20043;-68
2022/09/07 14:15:22;;;;;;;4.65;3.42;;;;;;;;;;4958683;28;20053;-68
2022/09/07 14:18:01;;;;;;;6.38;3.30;;;;;;;;;;4942638;28;20082;-67
2022/09/07 14:20:43;;;;;;;7.03;3.65;;;;;;;;;;4975549;28;20046;-68
2022/09/07 14:23:28;;;;;;;4.78;3.50;;;;;;;;;;4975890;28;20049;-68
2022/09/07 14:26:15;;;;;;;7.43;3.92;;;;;;;;;;4954747;28;20048;-68
2022/09/07 14:28:43;;;;;;;5.22;3.45;;;;;;;;;;4952720;28;20402;-67
2022/09/07 14:31:18;;;;;;;5.50;3.22;;;;;;;;;;4939485;29;20032;-69
2022/09/07 14:33:56;;;;;;;6.00;3.42;;;;;;;;;;4939077;28;20090;-68
2022/09/07 14:36:43;;;;;;;5.60;3.47;;;;;;;;;;4955515;28;20043;-68
2022/09/07 14:39:12;;;;;;;4.72;3.50;;;;;;;;;;4922372;28;20051;-70
2022/09/07 14:41:40;;;;;;;6.70;3.20;;;;;;;;;;4938577;28;20028;-67
2022/09/07 14:44:30;;;;;;;4.40;3.25;;;;;;;;;;4938942;28;20090;-68
2022/09/07 14:47:22;;;;;;;5.75;3.30;;;;;;;;;;4938265;28;20479;-68
2022/09/07 14:50:03;;;;;;;7.00;3.05;;;;;;;;;;4939890;28;20111;-68
2022/09/07 14:52:46;;;;;;;4.35;3.40;;;;;;;;;;4953861;28;20044;-69
2022/09/07 14:55:34;;;;;;;5.78;3.67;;;;;;;;;;4938391;28;20046;-68
2022/09/07 14:58:14;;;;;;;8.50;3.70;;;;;;;;;;4937895;28;20043;-68
2022/09/07 15:01:15;;;;;;;4.63;3.70;;;;;;;;;;4921983;28;20074;-67
2022/09/07 15:03:41;;;;;;;5.78;3.78;;;;;;;;;;4937926;29;20035;-67
2022/09/07 15:06:09;;;;;;;4.60;3.45;;;;;;;;;;4937885;28;20031;-69
2022/09/07 15:08:40;;;;;;;7.97;3.55;;;;;;;;;;4937274;28;20537;-67
2022/09/07 15:11:19;;;;;;;4.55;3.20;;;;;;;;;;4937758;29;20071;-67
2022/09/07 15:13:53;;;;;;;6.43;3.60;;;;;;;;;;4952540;28;20122;-67
2022/09/07 15:16:23;;;;;;;5.82;3.30;;;;;;;;;;4953870;28;20034;-67
2022/09/07 15:19:01;;;;;;;7.50;3.40;;;;;;;;;;4953789;28;20035;-70
2022/09/07 15:21:32;;;;;;;6.13;2.90;;;;;;;;;;4947070;28;20496;-68